sensor_id;sensor_type;location;lat;lon;timestamp;temperature;humidity
52543;DHT22;38449;52.696;6.186;2022-08-19T00:00:35;18.10;99.90
52543;DHT22;38449;52.696;6.186;2022-08-19T00:03:02;18.10;99.90
52543;DHT22;38449;52.696;6.186;2022-08-19T00:05:27;18.10;99.90
52543;DHT22;38449;52.696;6.186;2022-08-19T00:07:53;18.10;99.90
52543;DHT22;38449;52.696;6.186;2022-08-19T00:10:20;18.10;99.90
52543;DHT22;38449;52.696;6.186;2022-08-19T00:12:46;18.00;99.90
52543;DHT22;38449;52.696;6.186;2022-08-19T00:15:15;18.00;99.90
52543;DHT22;38449;52.696;6.186;2022-08-19T00:17:43;17.90;99.90
52543;DHT22;38449;52.696;6.186;2022-08-19T00:20:11;17.90;99.90
52543;DHT22;38449;52.696;6.186;2022-08-19T00:22:38;17.90;99.90
52543;DHT22;38449;52.696;6.186;2022-08-19T00:25:05;17.80;99.90
52543;DHT22;38449;52.696;6.186;2022-08-19T00:27:31;17.80;99.90
52543;DHT22;38449;52.696;6.186;2022-08-19T00:29:57;17.80;99.90
52543;DHT22;38449;52.696;6.186;2022-08-19T00:32:24;17.80;99.90
52543;DHT22;38449;52.696;6.186;2022-08-19T00:34:51;17.80;99.90
52543;DHT22;38449;52.696;6.186;2022-08-19T00:37:19;17.70;99.90
52543;DHT22;38449;52.696;6.186;2022-08-19T00:39:45;17.70;99.90
52543;DHT22;38449;52.696;6.186;2022-08-19T00:42:11;17.70;99.90
52543;DHT22;38449;52.696;6.186;2022-08-19T00:44:39;17.60;99.90
52543;DHT22;38449;52.696;6.186;2022-08-19T00:47:04;17.60;99.90
52543;DHT22;38449;52.696;6.186;2022-08-19T00:56:53;17.50;99.90
52543;DHT22;38449;52.696;6.186;2022-08-19T00:59:19;17.50;99.90
52543;DHT22;38449;52.696;6.186;2022-08-19T01:01:45;17.50;99.90
52543;DHT22;38449;52.696;6.186;2022-08-19T01:04:12;17.50;99.90
52543;DHT22;38449;52.696;6.186;2022-08-19T01:14:00;17.40;99.90
52543;DHT22;38449;52.696;6.186;2022-08-19T01:16:26;17.30;99.90
52543;DHT22;38449;52.696;6.186;2022-08-19T01:18:53;17.30;99.90
52543;DHT22;38449;52.696;6.186;2022-08-19T01:23:57;17.20;99.90
52543;DHT22;38449;52.696;6.186;2022-08-19T01:26:25;17.20;99.90
52543;DHT22;38449;52.696;6.186;2022-08-19T01:28:53;17.20;99.90
52543;DHT22;38449;52.696;6.186;2022-08-19T01:31:26;17.20;99.90
52543;DHT22;38449;52.696;6.186;2022-08-19T01:34:10;17.20;99.90
52543;DHT22;38449;52.696;6.186;2022-08-19T01:36:42;17.20;99.90
52543;DHT22;38449;52.696;6.186;2022-08-19T01:39:15;17.10;99.90
52543;DHT22;38449;52.696;6.186;2022-08-19T01:41:42;17.10;99.90
52543;DHT22;38449;52.696;6.186;2022-08-19T01:44:08;17.10;99.90
52543;DHT22;38449;52.696;6.186;2022-08-19T01:46:35;17.10;99.90
52543;DHT22;38449;52.696;6.186;2022-08-19T01:49:03;17.00;99.90
52543;DHT22;38449;52.696;6.186;2022-08-19T01:51:28;17.00;99.90
52543;DHT22;38449;52.696;6.186;2022-08-19T01:53:56;17.00;99.90
52543;DHT22;38449;52.696;6.186;2022-08-19T02:14:46;16.80;99.90
52543;DHT22;38449;52.696;6.186;2022-08-19T02:17:12;16.70;99.90
52543;DHT22;38449;52.696;6.186;2022-08-19T02:19:38;16.70;99.90
52543;DHT22;38449;52.696;6.186;2022-08-19T02:22:03;16.70;99.90
52543;DHT22;38449;52.696;6.186;2022-08-19T02:24:29;16.70;99.90
52543;DHT22;38449;52.696;6.186;2022-08-19T02:26:55;16.70;99.90
52543;DHT22;38449;52.696;6.186;2022-08-19T02:36:38;16.60;99.90
52543;DHT22;38449;52.696;6.186;2022-08-19T02:39:04;16.60;99.90
52543;DHT22;38449;52.696;6.186;2022-08-19T02:41:31;16.60;99.90
52543;DHT22;38449;52.696;6.186;2022-08-19T02:44:00;16.60;99.90
52543;DHT22;38449;52.696;6.186;2022-08-19T02:46:29;16.60;99.90
52543;DHT22;38449;52.696;6.186;2022-08-19T02:48:59;16.60;99.90
52543;DHT22;38449;52.696;6.186;2022-08-19T02:51:34;16.60;99.90
52543;DHT22;38449;52.696;6.186;2022-08-19T02:54:00;16.60;99.90
52543;DHT22;38449;52.696;6.186;2022-08-19T02:56:26;16.60;99.90
52543;DHT22;38449;52.696;6.186;2022-08-19T02:58:54;16.60;99.90
52543;DHT22;38449;52.696;6.186;2022-08-19T03:01:26;16.70;99.90
52543;DHT22;38449;52.696;6.186;2022-08-19T03:03:53;16.50;99.90
52543;DHT22;38449;52.696;6.186;2022-08-19T03:06:19;16.50;99.90
52543;DHT22;38449;52.696;6.186;2022-08-19T03:08:47;16.50;99.90
52543;DHT22;38449;52.696;6.186;2022-08-19T03:11:19;16.50;99.90
52543;DHT22;38449;52.696;6.186;2022-08-19T03:13:45;16.50;99.90
52543;DHT22;38449;52.696;6.186;2022-08-19T03:16:11;16.50;99.90
52543;DHT22;38449;52.696;6.186;2022-08-19T03:18:38;16.40;99.90
52543;DHT22;38449;52.696;6.186;2022-08-19T03:21:05;16.50;99.90
52543;DHT22;38449;52.696;6.186;2022-08-19T03:23:30;16.40;99.90
52543;DHT22;38449;52.696;6.186;2022-08-19T03:25:56;16.40;99.90
52543;DHT22;38449;52.696;6.186;2022-08-19T03:28:22;16.40;99.90
52543;DHT22;38449;52.696;6.186;2022-08-19T03:30:56;16.40;99.90
52543;DHT22;38449;52.696;6.186;2022-08-19T03:33:27;16.40;99.90
52543;DHT22;38449;52.696;6.186;2022-08-19T03:36:08;16.40;99.90
52543;DHT22;38449;52.696;6.186;2022-08-19T03:38:38;16.30;99.90
52543;DHT22;38449;52.696;6.186;2022-08-19T03:41:06;16.30;99.90
52543;DHT22;38449;52.696;6.186;2022-08-19T03:43:34;16.30;99.90
52543;DHT22;38449;52.696;6.186;2022-08-19T03:46:06;16.20;99.90
52543;DHT22;38449;52.696;6.186;2022-08-19T03:48:33;16.30;99.90
52543;DHT22;38449;52.696;6.186;2022-08-19T03:50:59;16.30;99.90
52543;DHT22;38449;52.696;6.186;2022-08-19T03:53:29;16.30;99.90
52543;DHT22;38449;52.696;6.186;2022-08-19T03:55:55;16.30;99.90
52543;DHT22;38449;52.696;6.186;2022-08-19T03:58:22;16.20;99.90
52543;DHT22;38449;52.696;6.186;2022-08-19T04:04:29;16.20;99.90
52543;DHT22;38449;52.696;6.186;2022-08-19T04:06:56;16.20;99.90
52543;DHT22;38449;52.696;6.186;2022-08-19T04:09:22;16.20;99.90
52543;DHT22;38449;52.696;6.186;2022-08-19T04:11:51;16.20;99.90
52543;DHT22;38449;52.696;6.186;2022-08-19T04:14:22;16.30;99.90
52543;DHT22;38449;52.696;6.186;2022-08-19T04:16:49;16.20;99.90
52543;DHT22;38449;52.696;6.186;2022-08-19T04:19:16;16.20;99.90
52543;DHT22;38449;52.696;6.186;2022-08-19T04:21:47;16.20;99.90
52543;DHT22;38449;52.696;6.186;2022-08-19T04:24:14;16.20;99.90
52543;DHT22;38449;52.696;6.186;2022-08-19T04:26:40;16.20;99.90
52543;DHT22;38449;52.696;6.186;2022-08-19T04:29:09;16.20;99.90
52543;DHT22;38449;52.696;6.186;2022-08-19T04:31:39;16.20;99.90
52543;DHT22;38449;52.696;6.186;2022-08-19T04:34:08;16.20;99.90
52543;DHT22;38449;52.696;6.186;2022-08-19T04:36:36;16.20;99.90
52543;DHT22;38449;52.696;6.186;2022-08-19T04:39:07;16.20;99.90
52543;DHT22;38449;52.696;6.186;2022-08-19T04:41:33;16.20;99.90
52543;DHT22;38449;52.696;6.186;2022-08-19T04:44:17;16.20;99.90
52543;DHT22;38449;52.696;6.186;2022-08-19T04:46:44;16.20;99.90
52543;DHT22;38449;52.696;6.186;2022-08-19T04:49:10;16.20;99.90
52543;DHT22;38449;52.696;6.186;2022-08-19T04:51:39;16.30;99.90
52543;DHT22;38449;52.696;6.186;2022-08-19T04:54:05;16.30;99.90
52543;DHT22;38449;52.696;6.186;2022-08-19T04:56:30;16.30;99.90
52543;DHT22;38449;52.696;6.186;2022-08-19T04:58:56;16.20;99.90
52543;DHT22;38449;52.696;6.186;2022-08-19T05:01:25;16.20;99.90
52543;DHT22;38449;52.696;6.186;2022-08-19T05:03:51;16.20;99.90
52543;DHT22;38449;52.696;6.186;2022-08-19T05:06:20;16.20;99.90
52543;DHT22;38449;52.696;6.186;2022-08-19T05:08:46;16.20;99.90
52543;DHT22;38449;52.696;6.186;2022-08-19T05:11:18;16.30;99.90
52543;DHT22;38449;52.696;6.186;2022-08-19T05:13:46;16.30;99.90
52543;DHT22;38449;52.696;6.186;2022-08-19T05:16:15;16.30;99.90
52543;DHT22;38449;52.696;6.186;2022-08-19T05:18:41;16.30;99.90
52543;DHT22;38449;52.696;6.186;2022-08-19T05:21:25;16.40;99.90
52543;DHT22;38449;52.696;6.186;2022-08-19T05:24:09;16.50;99.90
52543;DHT22;38449;52.696;6.186;2022-08-19T05:26:36;16.80;99.90
52543;DHT22;38449;52.696;6.186;2022-08-19T05:29:03;17.00;99.90
52543;DHT22;38449;52.696;6.186;2022-08-19T05:31:30;17.40;99.90
52543;DHT22;38449;52.696;6.186;2022-08-19T05:33:56;18.00;99.90
52543;DHT22;38449;52.696;6.186;2022-08-19T05:36:28;18.30;99.90
52543;DHT22;38449;52.696;6.186;2022-08-19T05:38:54;18.70;99.90
52543;DHT22;38449;52.696;6.186;2022-08-19T05:41:22;19.10;99.90
52543;DHT22;38449;52.696;6.186;2022-08-19T05:43:58;19.50;99.90
52543;DHT22;38449;52.696;6.186;2022-08-19T05:46:26;20.10;99.90
52543;DHT22;38449;52.696;6.186;2022-08-19T05:48:51;20.40;99.90
52543;DHT22;38449;52.696;6.186;2022-08-19T05:51:17;20.70;99.90
52543;DHT22;38449;52.696;6.186;2022-08-19T05:53:44;21.00;99.90
52543;DHT22;38449;52.696;6.186;2022-08-19T05:56:15;21.30;99.90
52543;DHT22;38449;52.696;6.186;2022-08-19T05:58:42;21.60;99.90
52543;DHT22;38449;52.696;6.186;2022-08-19T06:01:12;21.80;99.90
52543;DHT22;38449;52.696;6.186;2022-08-19T06:03:40;22.30;99.90
52543;DHT22;38449;52.696;6.186;2022-08-19T06:06:07;22.70;99.90
52543;DHT22;38449;52.696;6.186;2022-08-19T06:08:35;22.90;99.90
52543;DHT22;38449;52.696;6.186;2022-08-19T06:13:46;23.50;99.90
52543;DHT22;38449;52.696;6.186;2022-08-19T06:16:17;23.50;99.90
52543;DHT22;38449;52.696;6.186;2022-08-19T06:18:52;23.60;99.90
52543;DHT22;38449;52.696;6.186;2022-08-19T06:21:20;23.90;99.90
52543;DHT22;38449;52.696;6.186;2022-08-19T06:23:47;24.00;99.90
52543;DHT22;38449;52.696;6.186;2022-08-19T06:26:14;23.90;99.90
52543;DHT22;38449;52.696;6.186;2022-08-19T06:28:40;23.70;99.90
52543;DHT22;38449;52.696;6.186;2022-08-19T06:31:17;23.90;99.90
52543;DHT22;38449;52.696;6.186;2022-08-19T06:33:44;24.00;99.90
52543;DHT22;38449;52.696;6.186;2022-08-19T06:36:27;24.30;99.90
52543;DHT22;38449;52.696;6.186;2022-08-19T06:38:55;24.30;99.90
52543;DHT22;38449;52.696;6.186;2022-08-19T06:41:24;24.60;99.90
52543;DHT22;38449;52.696;6.186;2022-08-19T06:43:49;24.80;99.90
52543;DHT22;38449;52.696;6.186;2022-08-19T06:46:17;24.80;99.90
52543;DHT22;38449;52.696;6.186;2022-08-19T06:48:44;25.00;99.90
52543;DHT22;38449;52.696;6.186;2022-08-19T06:51:10;24.90;99.90
52543;DHT22;38449;52.696;6.186;2022-08-19T06:53:36;25.00;99.90
52543;DHT22;38449;52.696;6.186;2022-08-19T06:56:01;25.00;99.90
52543;DHT22;38449;52.696;6.186;2022-08-19T06:58:29;25.20;99.90
52543;DHT22;38449;52.696;6.186;2022-08-19T07:01:02;25.20;99.90
52543;DHT22;38449;52.696;6.186;2022-08-19T07:03:33;25.10;99.90
52543;DHT22;38449;52.696;6.186;2022-08-19T07:06:09;25.20;99.90
52543;DHT22;38449;52.696;6.186;2022-08-19T07:08:36;25.20;99.90
52543;DHT22;38449;52.696;6.186;2022-08-19T07:11:06;25.20;99.90
52543;DHT22;38449;52.696;6.186;2022-08-19T07:13:33;25.20;99.90
52543;DHT22;38449;52.696;6.186;2022-08-19T07:16:10;25.20;99.90
52543;DHT22;38449;52.696;6.186;2022-08-19T07:18:36;25.40;99.90
52543;DHT22;38449;52.696;6.186;2022-08-19T07:21:14;25.20;99.90
52543;DHT22;38449;52.696;6.186;2022-08-19T07:23:41;25.30;99.90
52543;DHT22;38449;52.696;6.186;2022-08-19T07:26:16;25.40;99.90
52543;DHT22;38449;52.696;6.186;2022-08-19T07:28:43;25.60;99.90
52543;DHT22;38449;52.696;6.186;2022-08-19T07:31:15;25.40;99.90
52543;DHT22;38449;52.696;6.186;2022-08-19T07:33:43;25.20;99.90
52543;DHT22;38449;52.696;6.186;2022-08-19T07:36:11;25.10;99.90
52543;DHT22;38449;52.696;6.186;2022-08-19T07:38:38;24.90;99.90
52543;DHT22;38449;52.696;6.186;2022-08-19T07:41:05;24.80;99.90
52543;DHT22;38449;52.696;6.186;2022-08-19T07:43:31;24.50;99.90
52543;DHT22;38449;52.696;6.186;2022-08-19T07:45:57;24.60;99.90
52543;DHT22;38449;52.696;6.186;2022-08-19T07:48:27;24.40;99.90
52543;DHT22;38449;52.696;6.186;2022-08-19T07:51:03;24.20;99.90
52543;DHT22;38449;52.696;6.186;2022-08-19T07:53:31;24.20;99.90
52543;DHT22;38449;52.696;6.186;2022-08-19T07:55:58;24.20;99.90
52543;DHT22;38449;52.696;6.186;2022-08-19T07:58:30;24.20;99.90
52543;DHT22;38449;52.696;6.186;2022-08-19T08:00:57;24.30;99.90
52543;DHT22;38449;52.696;6.186;2022-08-19T08:03:23;24.30;99.90
52543;DHT22;38449;52.696;6.186;2022-08-19T08:06:09;24.40;99.90
52543;DHT22;38449;52.696;6.186;2022-08-19T08:09:04;24.40;99.90
52543;DHT22;38449;52.696;6.186;2022-08-19T08:11:42;24.30;99.90
52543;DHT22;38449;52.696;6.186;2022-08-19T08:14:14;24.30;99.90
52543;DHT22;38449;52.696;6.186;2022-08-19T08:16:40;24.50;99.90
52543;DHT22;38449;52.696;6.186;2022-08-19T08:19:07;24.40;99.90
52543;DHT22;38449;52.696;6.186;2022-08-19T08:21:33;24.40;99.90
52543;DHT22;38449;52.696;6.186;2022-08-19T08:23:59;24.20;99.90
52543;DHT22;38449;52.696;6.186;2022-08-19T08:26:25;24.20;99.90
52543;DHT22;38449;52.696;6.186;2022-08-19T08:28:52;24.30;99.90
52543;DHT22;38449;52.696;6.186;2022-08-19T08:31:18;24.30;99.90
52543;DHT22;38449;52.696;6.186;2022-08-19T08:33:44;24.30;99.90
52543;DHT22;38449;52.696;6.186;2022-08-19T08:36:11;24.40;99.90
52543;DHT22;38449;52.696;6.186;2022-08-19T08:38:40;24.50;99.90
52543;DHT22;38449;52.696;6.186;2022-08-19T08:41:19;24.60;99.90
52543;DHT22;38449;52.696;6.186;2022-08-19T08:43:50;24.60;99.90
52543;DHT22;38449;52.696;6.186;2022-08-19T08:46:43;24.40;99.90
52543;DHT22;38449;52.696;6.186;2022-08-19T08:51:47;24.40;99.90
52543;DHT22;38449;52.696;6.186;2022-08-19T08:54:19;24.40;99.90
52543;DHT22;38449;52.696;6.186;2022-08-19T08:56:47;24.40;99.90
52543;DHT22;38449;52.696;6.186;2022-08-19T09:01:50;24.50;99.90
52543;DHT22;38449;52.696;6.186;2022-08-19T09:04:16;24.50;99.90
52543;DHT22;38449;52.696;6.186;2022-08-19T09:09:38;24.60;99.90
52543;DHT22;38449;52.696;6.186;2022-08-19T09:15:13;24.60;99.90
52543;DHT22;38449;52.696;6.186;2022-08-19T09:17:39;24.80;99.90
52543;DHT22;38449;52.696;6.186;2022-08-19T09:20:23;24.80;99.90
52543;DHT22;38449;52.696;6.186;2022-08-19T09:22:49;24.90;99.90
52543;DHT22;38449;52.696;6.186;2022-08-19T09:25:18;24.80;99.90
52543;DHT22;38449;52.696;6.186;2022-08-19T09:27:44;24.80;99.90
52543;DHT22;38449;52.696;6.186;2022-08-19T09:30:17;24.80;99.90
52543;DHT22;38449;52.696;6.186;2022-08-19T09:32:44;24.90;99.90
52543;DHT22;38449;52.696;6.186;2022-08-19T09:35:11;24.80;99.90
52543;DHT22;38449;52.696;6.186;2022-08-19T09:37:38;24.90;99.90
52543;DHT22;38449;52.696;6.186;2022-08-19T09:40:05;25.00;99.90
52543;DHT22;38449;52.696;6.186;2022-08-19T09:42:32;24.90;99.90
52543;DHT22;38449;52.696;6.186;2022-08-19T09:44:59;25.00;99.90
52543;DHT22;38449;52.696;6.186;2022-08-19T09:47:25;24.90;99.90
52543;DHT22;38449;52.696;6.186;2022-08-19T09:49:50;24.80;99.90
52543;DHT22;38449;52.696;6.186;2022-08-19T09:52:16;24.90;99.90
52543;DHT22;38449;52.696;6.186;2022-08-19T09:54:43;24.90;99.90
52543;DHT22;38449;52.696;6.186;2022-08-19T09:57:09;25.00;99.90
52543;DHT22;38449;52.696;6.186;2022-08-19T09:59:34;25.10;99.90
52543;DHT22;38449;52.696;6.186;2022-08-19T10:02:00;25.30;99.90
52543;DHT22;38449;52.696;6.186;2022-08-19T10:04:26;25.40;99.90
52543;DHT22;38449;52.696;6.186;2022-08-19T10:07:12;25.40;99.90
52543;DHT22;38449;52.696;6.186;2022-08-19T10:09:38;25.30;99.90
52543;DHT22;38449;52.696;6.186;2022-08-19T10:12:05;25.30;99.90
52543;DHT22;38449;52.696;6.186;2022-08-19T10:14:31;25.30;99.90
52543;DHT22;38449;52.696;6.186;2022-08-19T10:16:57;25.40;99.90
52543;DHT22;38449;52.696;6.186;2022-08-19T10:19:23;25.40;99.90
52543;DHT22;38449;52.696;6.186;2022-08-19T10:21:48;25.60;99.90
52543;DHT22;38449;52.696;6.186;2022-08-19T10:24:14;25.60;99.90
52543;DHT22;38449;52.696;6.186;2022-08-19T10:26:40;25.70;99.90
52543;DHT22;38449;52.696;6.186;2022-08-19T10:29:12;25.60;99.90
52543;DHT22;38449;52.696;6.186;2022-08-19T10:31:41;25.50;99.90
52543;DHT22;38449;52.696;6.186;2022-08-19T10:34:07;25.50;99.90
52543;DHT22;38449;52.696;6.186;2022-08-19T10:36:36;25.70;99.90
52543;DHT22;38449;52.696;6.186;2022-08-19T10:39:08;25.90;99.90
52543;DHT22;38449;52.696;6.186;2022-08-19T10:41:36;25.90;99.90
52543;DHT22;38449;52.696;6.186;2022-08-19T10:44:07;25.90;99.90
52543;DHT22;38449;52.696;6.186;2022-08-19T10:46:36;26.00;99.90
52543;DHT22;38449;52.696;6.186;2022-08-19T10:49:05;25.90;99.90
52543;DHT22;38449;52.696;6.186;2022-08-19T10:51:31;25.90;99.90
52543;DHT22;38449;52.696;6.186;2022-08-19T10:54:16;25.90;99.90
52543;DHT22;38449;52.696;6.186;2022-08-19T10:56:43;25.90;99.90
52543;DHT22;38449;52.696;6.186;2022-08-19T10:59:20;25.90;99.90
52543;DHT22;38449;52.696;6.186;2022-08-19T11:01:47;25.90;99.90
52543;DHT22;38449;52.696;6.186;2022-08-19T11:04:13;26.00;99.90
52543;DHT22;38449;52.696;6.186;2022-08-19T11:06:42;26.00;99.90
52543;DHT22;38449;52.696;6.186;2022-08-19T11:09:09;26.00;99.90
52543;DHT22;38449;52.696;6.186;2022-08-19T11:11:37;26.00;99.90
52543;DHT22;38449;52.696;6.186;2022-08-19T11:14:11;26.00;99.90
52543;DHT22;38449;52.696;6.186;2022-08-19T11:16:38;26.00;99.90
52543;DHT22;38449;52.696;6.186;2022-08-19T11:19:04;26.10;99.90
52543;DHT22;38449;52.696;6.186;2022-08-19T11:21:33;25.90;99.90
52543;DHT22;38449;52.696;6.186;2022-08-19T11:24:02;25.90;99.90
52543;DHT22;38449;52.696;6.186;2022-08-19T11:26:30;25.90;99.90
52543;DHT22;38449;52.696;6.186;2022-08-19T11:28:57;26.00;99.90
52543;DHT22;38449;52.696;6.186;2022-08-19T11:31:26;25.90;99.90
52543;DHT22;38449;52.696;6.186;2022-08-19T11:33:52;25.90;99.90
52543;DHT22;38449;52.696;6.186;2022-08-19T11:36:20;26.00;99.90
52543;DHT22;38449;52.696;6.186;2022-08-19T11:38:47;26.00;99.90
52543;DHT22;38449;52.696;6.186;2022-08-19T11:41:15;26.20;99.90
52543;DHT22;38449;52.696;6.186;2022-08-19T11:43:41;26.20;99.90
52543;DHT22;38449;52.696;6.186;2022-08-19T11:46:09;26.30;99.90
52543;DHT22;38449;52.696;6.186;2022-08-19T11:48:36;26.60;99.90
52543;DHT22;38449;52.696;6.186;2022-08-19T11:51:10;26.80;99.90
52543;DHT22;38449;52.696;6.186;2022-08-19T11:53:37;26.80;99.90
52543;DHT22;38449;52.696;6.186;2022-08-19T11:56:04;26.80;99.90
52543;DHT22;38449;52.696;6.186;2022-08-19T11:58:30;26.70;99.90
52543;DHT22;38449;52.696;6.186;2022-08-19T12:00:56;26.50;99.90
52543;DHT22;38449;52.696;6.186;2022-08-19T12:03:22;26.30;99.90
52543;DHT22;38449;52.696;6.186;2022-08-19T12:05:48;26.40;99.90
52543;DHT22;38449;52.696;6.186;2022-08-19T12:08:15;26.20;99.90
52543;DHT22;38449;52.696;6.186;2022-08-19T12:10:42;26.20;99.90
52543;DHT22;38449;52.696;6.186;2022-08-19T12:13:08;26.00;99.90
52543;DHT22;38449;52.696;6.186;2022-08-19T12:15:39;26.10;99.90
52543;DHT22;38449;52.696;6.186;2022-08-19T12:18:07;26.20;99.90
52543;DHT22;38449;52.696;6.186;2022-08-19T12:20:37;26.20;99.90
52543;DHT22;38449;52.696;6.186;2022-08-19T12:23:04;26.50;99.90
52543;DHT22;38449;52.696;6.186;2022-08-19T12:25:30;26.60;99.90
52543;DHT22;38449;52.696;6.186;2022-08-19T12:27:57;26.80;99.90
52543;DHT22;38449;52.696;6.186;2022-08-19T12:30:24;26.90;99.90
52543;DHT22;38449;52.696;6.186;2022-08-19T12:32:49;27.00;99.90
52543;DHT22;38449;52.696;6.186;2022-08-19T12:35:17;27.00;99.90
52543;DHT22;38449;52.696;6.186;2022-08-19T12:37:46;27.10;99.90
52543;DHT22;38449;52.696;6.186;2022-08-19T12:40:12;27.10;99.90
52543;DHT22;38449;52.696;6.186;2022-08-19T12:42:39;27.20;99.90
52543;DHT22;38449;52.696;6.186;2022-08-19T12:45:08;27.20;99.90
52543;DHT22;38449;52.696;6.186;2022-08-19T12:47:35;27.10;99.90
52543;DHT22;38449;52.696;6.186;2022-08-19T12:50:01;27.10;99.90
52543;DHT22;38449;52.696;6.186;2022-08-19T12:52:26;27.20;99.90
52543;DHT22;38449;52.696;6.186;2022-08-19T12:54:54;27.20;99.90
52543;DHT22;38449;52.696;6.186;2022-08-19T12:57:22;27.20;99.90
52543;DHT22;38449;52.696;6.186;2022-08-19T12:59:52;27.10;99.90
52543;DHT22;38449;52.696;6.186;2022-08-19T13:02:19;27.20;99.90
52543;DHT22;38449;52.696;6.186;2022-08-19T13:04:45;27.20;99.90
52543;DHT22;38449;52.696;6.186;2022-08-19T13:07:11;27.10;99.90
52543;DHT22;38449;52.696;6.186;2022-08-19T13:09:36;27.10;99.90
52543;DHT22;38449;52.696;6.186;2022-08-19T13:12:03;27.10;99.90
52543;DHT22;38449;52.696;6.186;2022-08-19T13:14:33;27.00;99.90
52543;DHT22;38449;52.696;6.186;2022-08-19T13:16:59;26.90;99.90
52543;DHT22;38449;52.696;6.186;2022-08-19T13:19:24;27.00;99.90
52543;DHT22;38449;52.696;6.186;2022-08-19T13:21:50;27.00;99.90
52543;DHT22;38449;52.696;6.186;2022-08-19T13:24:17;26.90;99.90
52543;DHT22;38449;52.696;6.186;2022-08-19T13:26:43;26.80;99.90
52543;DHT22;38449;52.696;6.186;2022-08-19T13:29:09;26.80;99.90
52543;DHT22;38449;52.696;6.186;2022-08-19T13:31:53;26.80;99.90
52543;DHT22;38449;52.696;6.186;2022-08-19T13:34:37;26.90;99.90
52543;DHT22;38449;52.696;6.186;2022-08-19T13:37:04;26.80;99.90
52543;DHT22;38449;52.696;6.186;2022-08-19T13:39:31;26.60;99.90
52543;DHT22;38449;52.696;6.186;2022-08-19T13:41:57;26.40;99.90
52543;DHT22;38449;52.696;6.186;2022-08-19T13:44:25;26.20;99.90
52543;DHT22;38449;52.696;6.186;2022-08-19T13:46:51;26.40;99.90
52543;DHT22;38449;52.696;6.186;2022-08-19T13:49:18;26.50;99.90
52543;DHT22;38449;52.696;6.186;2022-08-19T13:51:45;26.80;99.90
52543;DHT22;38449;52.696;6.186;2022-08-19T13:54:12;27.00;99.90
52543;DHT22;38449;52.696;6.186;2022-08-19T13:56:43;27.10;99.90
52543;DHT22;38449;52.696;6.186;2022-08-19T13:59:09;26.90;99.90
52543;DHT22;38449;52.696;6.186;2022-08-19T14:01:36;26.80;99.90
52543;DHT22;38449;52.696;6.186;2022-08-19T14:04:02;26.60;99.90
52543;DHT22;38449;52.696;6.186;2022-08-19T14:06:28;26.40;99.90
52543;DHT22;38449;52.696;6.186;2022-08-19T14:08:54;26.30;99.90
52543;DHT22;38449;52.696;6.186;2022-08-19T14:11:19;26.20;99.90
52543;DHT22;38449;52.696;6.186;2022-08-19T14:13:45;26.20;99.90
52543;DHT22;38449;52.696;6.186;2022-08-19T14:16:13;26.20;99.90
52543;DHT22;38449;52.696;6.186;2022-08-19T14:18:39;26.20;99.90
52543;DHT22;38449;52.696;6.186;2022-08-19T14:21:05;26.20;99.90
52543;DHT22;38449;52.696;6.186;2022-08-19T14:23:32;26.20;99.90
52543;DHT22;38449;52.696;6.186;2022-08-19T14:26:10;26.20;99.90
52543;DHT22;38449;52.696;6.186;2022-08-19T14:28:37;26.10;99.90
52543;DHT22;38449;52.696;6.186;2022-08-19T14:31:04;26.00;99.90
52543;DHT22;38449;52.696;6.186;2022-08-19T14:33:30;26.10;99.90
52543;DHT22;38449;52.696;6.186;2022-08-19T14:35:57;26.00;99.90
52543;DHT22;38449;52.696;6.186;2022-08-19T14:38:23;26.00;99.90
52543;DHT22;38449;52.696;6.186;2022-08-19T14:40:48;25.90;99.90
52543;DHT22;38449;52.696;6.186;2022-08-19T14:43:14;25.90;99.90
52543;DHT22;38449;52.696;6.186;2022-08-19T14:45:40;25.90;99.90
52543;DHT22;38449;52.696;6.186;2022-08-19T14:48:07;25.90;99.90
52543;DHT22;38449;52.696;6.186;2022-08-19T14:50:33;25.70;99.90
52543;DHT22;38449;52.696;6.186;2022-08-19T14:53:01;25.80;99.90
52543;DHT22;38449;52.696;6.186;2022-08-19T14:55:29;25.90;99.90
52543;DHT22;38449;52.696;6.186;2022-08-19T14:57:55;25.90;99.90
52543;DHT22;38449;52.696;6.186;2022-08-19T15:00:21;26.00;99.90
52543;DHT22;38449;52.696;6.186;2022-08-19T15:02:49;26.00;99.90
52543;DHT22;38449;52.696;6.186;2022-08-19T15:05:14;26.00;99.90
52543;DHT22;38449;52.696;6.186;2022-08-19T15:07:42;26.00;99.90
52543;DHT22;38449;52.696;6.186;2022-08-19T15:10:09;26.10;99.90
52543;DHT22;38449;52.696;6.186;2022-08-19T15:12:37;26.00;99.90
52543;DHT22;38449;52.696;6.186;2022-08-19T15:15:10;25.90;99.90
52543;DHT22;38449;52.696;6.186;2022-08-19T15:17:39;25.80;99.90
52543;DHT22;38449;52.696;6.186;2022-08-19T15:20:06;25.80;99.90
52543;DHT22;38449;52.696;6.186;2022-08-19T15:22:32;25.70;99.90
52543;DHT22;38449;52.696;6.186;2022-08-19T15:24:58;25.70;99.90
52543;DHT22;38449;52.696;6.186;2022-08-19T15:27:24;25.80;99.90
52543;DHT22;38449;52.696;6.186;2022-08-19T15:29:49;25.80;99.90
52543;DHT22;38449;52.696;6.186;2022-08-19T15:32:15;25.90;99.90
52543;DHT22;38449;52.696;6.186;2022-08-19T15:34:41;25.80;99.90
52543;DHT22;38449;52.696;6.186;2022-08-19T15:37:06;25.80;99.90
52543;DHT22;38449;52.696;6.186;2022-08-19T15:39:32;25.80;99.90
52543;DHT22;38449;52.696;6.186;2022-08-19T15:41:58;25.80;99.90
52543;DHT22;38449;52.696;6.186;2022-08-19T15:44:25;25.80;99.90
52543;DHT22;38449;52.696;6.186;2022-08-19T15:46:51;25.90;99.90
52543;DHT22;38449;52.696;6.186;2022-08-19T15:49:18;26.00;99.90
52543;DHT22;38449;52.696;6.186;2022-08-19T15:51:47;26.10;99.90
52543;DHT22;38449;52.696;6.186;2022-08-19T15:54:17;26.20;99.90
52543;DHT22;38449;52.696;6.186;2022-08-19T15:56:43;26.20;99.90
52543;DHT22;38449;52.696;6.186;2022-08-19T15:59:33;26.10;99.90
52543;DHT22;38449;52.696;6.186;2022-08-19T16:02:19;26.10;99.90
52543;DHT22;38449;52.696;6.186;2022-08-19T16:05:07;26.00;99.90
52543;DHT22;38449;52.696;6.186;2022-08-19T16:07:51;26.00;99.90
52543;DHT22;38449;52.696;6.186;2022-08-19T16:10:18;26.00;99.90
52543;DHT22;38449;52.696;6.186;2022-08-19T16:12:43;26.00;99.90
52543;DHT22;38449;52.696;6.186;2022-08-19T16:15:10;26.00;99.90
52543;DHT22;38449;52.696;6.186;2022-08-19T16:17:36;26.00;99.90
52543;DHT22;38449;52.696;6.186;2022-08-19T16:20:04;26.00;99.90
52543;DHT22;38449;52.696;6.186;2022-08-19T16:22:33;25.90;99.90
52543;DHT22;38449;52.696;6.186;2022-08-19T16:24:59;25.90;99.90
52543;DHT22;38449;52.696;6.186;2022-08-19T16:27:26;25.90;99.90
52543;DHT22;38449;52.696;6.186;2022-08-19T16:29:52;25.80;99.90
52543;DHT22;38449;52.696;6.186;2022-08-19T16:32:18;25.80;99.90
52543;DHT22;38449;52.696;6.186;2022-08-19T16:34:45;25.70;99.90
52543;DHT22;38449;52.696;6.186;2022-08-19T16:37:11;25.70;99.90